Time;durP1;ratioP1;P1;durP2;ratioP2;P2;SDS_P1;SDS_P2;PMS_P1;PMS_P2;Temp;Humidity;BMP_temperature;BMP_pressure;BME280_temperature;BME280_humidity;BME280_pressure;Samples;Min_cycle;Max_cycle;Signal;HPM_P1;HPM_P2
2022/10/26 00:01:39;;;;;;;9.53;7.55;;;;;;;9.65;82.09;101105.81;1619747;86;21844;-77
2022/10/26 00:04:24;;;;;;;10.90;8.03;;;;;;;9.61;81.96;101111.42;1638973;86;20983;-77
2022/10/26 00:07:09;;;;;;;9.20;7.12;;;;;;;9.57;82.00;101114.87;1630391;87;20955;-77
2022/10/26 00:09:54;;;;;;;8.73;6.37;;;;;;;9.56;82.05;101117.03;1642679;86;20915;-77
2022/10/26 00:12:39;;;;;;;16.00;6.95;;;;;;;9.57;82.12;101116.17;1631817;85;20976;-77
2022/10/26 00:15:24;;;;;;;10.72;6.33;;;;;;;9.55;82.13;101117.47;1646402;86;21550;-77
2022/10/26 00:18:09;;;;;;;6.78;6.17;;;;;;;9.56;82.15;101121.77;1644181;86;20959;-77
2022/10/26 00:20:54;;;;;;;7.53;5.72;;;;;;;9.56;82.14;101118.33;1651049;86;20985;-77
2022/10/26 00:23:39;;;;;;;7.10;6.33;;;;;;;9.55;82.11;101120.05;1650073;85;20970;-77
2022/10/26 00:26:23;;;;;;;10.28;7.25;;;;;;;9.55;82.10;101117.89;1644563;86;20942;-77
2022/10/26 00:29:11;;;;;;;9.08;6.80;;;;;;;9.55;82.15;101121.34;1647071;86;20919;-77
2022/10/26 00:31:56;;;;;;;10.13;7.62;;;;;;;9.56;82.15;101120.91;1649941;86;21392;-78
2022/10/26 00:34:41;;;;;;;13.30;7.60;;;;;;;9.57;82.21;101129.08;1608385;87;20979;-78
2022/10/26 00:37:26;;;;;;;19.48;6.75;;;;;;;9.58;82.24;101129.50;1609285;88;20986;-77
2022/10/26 00:40:12;;;;;;;29.23;5.65;;;;;;;9.58;82.17;101124.34;1633390;86;20904;-77
2022/10/26 00:42:57;;;;;;;20.92;6.97;;;;;;;9.52;81.98;101122.64;1618562;88;20935;-77
2022/10/26 00:45:43;;;;;;;50.85;6.60;;;;;;;9.48;82.07;101123.94;1634085;87;20928;-77
2022/10/26 00:48:37;;;;;;;9.98;5.95;;;;;;;9.46;82.13;101129.11;1630999;87;20971;-77
2022/10/26 00:51:31;;;;;;;37.17;5.22;;;;;;;9.45;82.18;101131.27;1620639;86;20957;-77
2022/10/26 00:54:18;;;;;;;8.43;5.20;;;;;;;9.40;82.10;101127.84;1632875;86;21464;-77
2022/10/26 00:57:03;;;;;;;18.30;4.55;;;;;;;9.39;82.15;101127.41;1626147;86;20971;-78
2022/10/26 00:59:50;;;;;;;6.30;4.60;;;;;;;9.36;82.08;101127.88;1637609;87;21448;-77
2022/10/26 01:02:35;;;;;;;13.93;5.78;;;;;;;9.34;82.13;101126.59;1634133;87;20935;-77
2022/10/26 01:05:21;;;;;;;8.83;6.17;;;;;;;9.33;82.16;101126.59;1625763;87;20936;-77
2022/10/26 01:08:08;;;;;;;10.45;7.47;;;;;;;9.32;82.11;101132.63;1639788;87;20935;-77
2022/10/26 01:10:53;;;;;;;9.50;6.45;;;;;;;9.30;82.18;101133.92;1631256;87;20911;-77
2022/10/26 01:13:41;;;;;;;9.50;7.75;;;;;;;9.29;82.14;101136.07;1639201;86;21396;-77
2022/10/26 01:16:49;;;;;;;20.97;7.35;;;;;;;9.27;82.15;101130.05;1633251;86;21467;-77
2022/10/26 01:20:13;;;;;;;8.63;7.47;;;;;;;9.28;82.22;101135.64;1571622;89;21022;-77
2022/10/26 01:23:08;;;;;;;6.72;5.90;;;;;;;9.28;82.24;101133.06;1589106;89;21649;-77
2022/10/26 01:26:07;;;;;;;9.87;6.90;;;;;;;9.27;82.19;101129.63;1602234;89;20980;-77
2022/10/26 01:29:12;;;;;;;25.00;7.30;;;;;;;9.25;82.15;101120.17;1600992;87;21265;-77
2022/10/26 01:32:14;;;;;;;9.78;7.50;;;;;;;9.22;82.18;101123.61;1601302;88;21061;-77
2022/10/26 01:35:22;;;;;;;13.43;6.47;;;;;;;9.20;82.15;101125.34;1600511;89;21439;-77
2022/10/26 01:38:33;;;;;;;13.93;7.58;;;;;;;9.18;82.15;101127.49;1600512;89;21887;-77
2022/10/26 01:41:23;;;;;;;20.82;5.50;;;;;;;9.14;82.15;101129.66;1601512;87;21034;-77
2022/10/26 01:44:32;;;;;;;6.58;5.05;;;;;;;9.12;82.17;101138.69;1598981;87;21008;-77
2022/10/26 01:47:19;;;;;;;5.03;4.53;;;;;;;9.11;82.25;101132.23;1600341;88;20993;-77
2022/10/26 01:50:06;;;;;;;4.90;4.40;;;;;;;9.08;82.16;101126.65;1612825;87;20951;-77
2022/10/26 01:52:51;;;;;;;11.55;5.30;;;;;;;9.07;82.19;101131.81;1635083;86;20927;-77
2022/10/26 01:55:52;;;;;;;6.08;4.22;;;;;;;9.05;82.20;101129.66;1621616;87;21404;-77
2022/10/26 01:59:25;;;;;;;4.05;3.27;;;;;;;9.05;82.22;101134.83;1629312;87;21070;-78
2022/10/26 02:02:30;;;;;;;7.90;2.98;;;;;;;9.05;82.22;101136.97;1633656;87;20974;-78
2022/10/26 02:05:32;;;;;;;5.40;3.50;;;;;;;9.00;82.08;101124.94;1635898;87;20967;-78
2022/10/26 02:08:34;;;;;;;4.50;3.72;;;;;;;8.95;82.05;101128.81;1631614;86;21786;-78
2022/10/26 02:11:28;;;;;;;8.85;5.47;;;;;;;8.90;82.11;101130.11;1633443;87;21430;-78
2022/10/26 02:14:27;;;;;;;9.98;5.55;;;;;;;8.89;82.21;101132.25;1634027;87;21427;-77
2022/10/26 02:17:26;;;;;;;14.38;4.67;;;;;;;8.88;82.14;101129.68;1604339;88;21427;-77
2022/10/26 02:20:16;;;;;;;7.10;5.28;;;;;;;8.84;82.11;101131.83;1637967;86;21056;-77
2022/10/26 02:23:06;;;;;;;6.92;5.33;;;;;;;8.81;82.15;101134.44;1639824;85;21025;-77
2022/10/26 02:25:55;;;;;;;53.08;7.20;;;;;;;8.79;82.17;101133.16;1637861;86;21109;-77
2022/10/26 02:28:45;;;;;;;22.52;7.42;;;;;;;8.77;82.17;101136.16;1636164;86;21172;-78
2022/10/26 02:31:31;;;;;;;8.63;6.10;;;;;;;8.76;82.20;101125.42;1643353;85;21097;-78
2022/10/26 02:34:21;;;;;;;9.38;6.30;;;;;;;8.76;82.26;101131.01;1638839;86;21774;-78
2022/10/26 02:37:08;;;;;;;27.52;8.23;;;;;;;8.74;82.12;101134.87;1632131;86;21049;-77
2022/10/26 02:39:54;;;;;;;;;;;;;;;8.74;82.22;101137.88;1609692;88;21607;-77
2022/10/26 02:42:44;;;;;;;34.27;8.85;;;;;;;8.76;82.35;101133.16;1598176;87;20517;-77
2022/10/26 02:45:37;;;;;;;37.70;10.40;;;;;;;8.77;82.27;101138.74;1645522;85;21340;-77
2022/10/26 02:48:23;;;;;;;30.00;8.85;;;;;;;8.77;82.29;101141.75;1637555;86;21085;-77
2022/10/26 02:51:37;;;;;;;17.80;7.80;;;;;;;8.77;82.31;101139.17;1596916;88;21130;-77
2022/10/26 02:55:06;;;;;;;36.03;7.42;;;;;;;8.78;82.41;101139.17;1440038;86;10000959;-77
2022/10/26 02:57:55;;;;;;;25.12;8.35;;;;;;;8.77;82.17;101140.46;1631599;86;21146;-77
2022/10/26 03:00:41;;;;;;;23.60;7.50;;;;;;;8.75;82.34;101140.89;1613697;87;21731;-77
2022/10/26 03:03:26;;;;;;;25.80;7.20;;;;;;;8.74;82.39;101138.74;1625255;87;21068;-77
2022/10/26 03:06:11;;;;;;;8.43;5.28;;;;;;;8.73;82.38;101143.90;1624204;87;21127;-77
2022/10/26 03:08:57;;;;;;;21.55;5.75;;;;;;;8.72;82.40;101145.62;1623394;87;21079;-77
2022/10/26 03:11:42;;;;;;;16.77;5.40;;;;;;;8.70;82.39;101147.77;1625312;87;21531;-78
2022/10/26 03:14:27;;;;;;;8.98;4.75;;;;;;;8.66;82.40;101149.48;1629991;87;21055;-77
2022/10/26 03:17:12;;;;;;;8.38;5.62;;;;;;;8.65;82.49;101148.19;1629221;86;21068;-77
2022/10/26 03:19:57;;;;;;;8.85;4.92;;;;;;;8.66;82.48;101149.91;1616880;87;21430;-77
2022/10/26 03:22:42;;;;;;;6.67;5.03;;;;;;;8.63;82.43;101149.05;1621457;87;21596;-77
2022/10/26 03:25:27;;;;;;;10.35;5.50;;;;;;;8.62;82.45;101152.48;1618542;86;21108;-76
2022/10/26 03:28:13;;;;;;;5.58;4.67;;;;;;;8.62;82.46;101157.64;1626169;86;20981;-76
2022/10/26 03:30:58;;;;;;;12.63;4.93;;;;;;;8.62;82.47;101158.93;1619720;86;21124;-76
2022/10/26 03:33:43;;;;;;;25.02;5.97;;;;;;;8.63;82.45;101162.37;1628240;85;21627;-76
2022/10/26 03:36:28;;;;;;;12.55;6.55;;;;;;;8.60;82.47;101161.08;1628071;87;21060;-76
2022/10/26 03:39:13;;;;;;;16.40;7.28;;;;;;;8.60;82.54;101163.22;1613698;87;21153;-76
2022/10/26 03:41:59;;;;;;;14.45;7.53;;;;;;;8.62;82.61;101159.36;1622178;86;21039;-76
2022/10/26 03:44:46;;;;;;;23.10;8.30;;;;;;;8.65;82.69;101163.23;1621218;86;21535;-76
2022/10/26 03:47:31;;;;;;;29.67;8.60;;;;;;;8.69;82.71;101159.80;1633550;85;21136;-76
2022/10/26 03:50:20;;;;;;;36.63;8.93;;;;;;;8.71;82.78;101164.52;1636129;86;21072;-76
2022/10/26 03:53:06;;;;;;;20.65;8.43;;;;;;;8.75;82.74;101166.67;1593564;89;21430;-76
2022/10/26 03:55:50;;;;;;;14.68;7.25;;;;;;;8.79;82.76;101163.23;1593952;88;20995;-76
2022/10/26 03:58:35;;;;;;;14.00;7.55;;;;;;;8.82;82.76;101163.23;1631975;84;21010;-76
2022/10/26 04:01:20;;;;;;;26.23;8.75;;;;;;;8.81;82.60;101167.53;1630703;86;20935;-77
2022/10/26 04:04:05;;;;;;;22.42;9.25;;;;;;;8.82;82.69;101169.25;1644462;85;21014;-78
2022/10/26 04:06:50;;;;;;;19.27;9.10;;;;;;;8.86;82.77;101175.23;1632223;86;20967;-77
2022/10/26 04:09:35;;;;;;;28.83;9.40;;;;;;;8.88;82.75;101169.22;1637587;85;20954;-79
2022/10/26 04:12:20;;;;;;;17.00;7.90;;;;;;;8.91;82.78;101161.91;1632496;85;20963;-77
2022/10/26 04:15:06;;;;;;;15.63;7.95;;;;;;;8.91;82.76;101162.77;1634454;85;21006;-77
2022/10/26 04:18:00;;;;;;;16.85;8.95;;;;;;;8.90;82.73;101162.77;1636980;85;20983;-80
2022/10/26 04:20:44;;;;;;;27.77;10.43;;;;;;;8.90;82.82;101166.22;1633181;86;20943;-80
2022/10/26 04:23:29;;;;;;;28.32;9.93;;;;;;;8.93;82.84;101170.08;1639027;86;20938;-80
2022/10/26 04:26:15;;;;;;;25.25;10.50;;;;;;;8.94;82.83;101169.22;1634649;85;21336;-80
2022/10/26 04:28:59;;;;;;;37.88;10.05;;;;;;;8.94;82.83;101164.06;1634054;85;20967;-81
2022/10/26 04:31:44;;;;;;;28.77;9.60;;;;;;;8.94;82.88;101170.94;1637807;85;21430;-75
2022/10/26 04:34:29;;;;;;;51.73;10.18;;;;;;;8.97;82.93;101174.81;1640026;85;20976;-75
2022/10/26 04:37:14;;;;;;;24.57;10.68;;;;;;;8.94;82.88;101172.23;1637191;86;20976;-75
2022/10/26 04:39:59;;;;;;;30.37;11.43;;;;;;;8.94;82.97;101168.36;1632602;85;21452;-75
2022/10/26 04:42:46;;;;;;;32.78;11.63;;;;;;;8.95;83.00;101168.36;1629029;85;20958;-75
2022/10/26 04:45:32;;;;;;;49.08;12.53;;;;;;;8.95;83.00;101168.36;1638201;86;20975;-75
2022/10/26 04:48:16;;;;;;;53.68;13.32;;;;;;;8.99;83.05;101171.80;1637168;85;20935;-75
2022/10/26 04:51:01;;;;;;;46.25;11.43;;;;;;;8.99;83.03;101169.22;1635068;85;21511;-78
2022/10/26 04:53:46;;;;;;;47.67;10.78;;;;;;;8.97;83.00;101168.36;1633565;85;20982;-78
2022/10/26 04:56:32;;;;;;;32.80;11.12;;;;;;;8.99;83.05;101164.49;1636525;85;21505;-78
2022/10/26 04:59:17;;;;;;;47.38;11.48;;;;;;;8.99;83.09;101167.93;1631457;85;20915;-78
2022/10/26 05:02:02;;;;;;;50.20;12.15;;;;;;;9.01;83.11;101170.51;1629798;87;21595;-78
2022/10/26 05:04:48;;;;;;;31.02;12.35;;;;;;;9.02;83.10;101169.65;1633640;87;21431;-78
2022/10/26 05:07:32;;;;;;;44.65;11.45;;;;;;;9.03;83.13;101174.81;1632689;86;20959;-78
2022/10/26 05:10:17;;;;;;;22.75;11.80;;;;;;;9.04;83.16;101174.38;1627130;85;21852;-78
2022/10/26 05:13:02;;;;;;;40.83;13.08;;;;;;;9.03;83.13;101173.52;1633105;87;20923;-78
2022/10/26 05:15:47;;;;;;;46.50;15.40;;;;;;;9.03;83.19;101173.52;1632301;86;20983;-78
2022/10/26 05:18:32;;;;;;;48.70;17.98;;;;;;;9.05;83.23;101173.52;1639417;87;20967;-78
2022/10/26 05:21:20;;;;;;;53.35;16.85;;;;;;;9.07;83.27;101173.95;1630237;86;20927;-78
2022/10/26 05:24:06;;;;;;;26.45;9.25;;;;;;;9.09;83.28;101180.39;1628973;86;21077;-78
2022/10/26 05:26:51;;;;;;;31.73;8.75;;;;;;;9.10;83.27;101181.69;1631175;85;21125;-78
2022/10/26 05:29:36;;;;;;;34.50;8.98;;;;;;;9.10;83.30;101189.42;1630539;85;21118;-78
2022/10/26 05:32:21;;;;;;;17.92;7.90;;;;;;;9.11;83.29;101192.43;1630138;85;21433;-78
2022/10/26 05:35:07;;;;;;;24.77;7.95;;;;;;;9.12;83.33;101196.73;1629906;85;21625;-78
2022/10/26 05:37:52;;;;;;;36.17;9.33;;;;;;;9.10;83.30;101197.59;1629617;86;25297;-78
2022/10/26 05:40:38;;;;;;;40.77;10.10;;;;;;;9.10;83.36;101201.03;1630964;85;21054;-78
2022/10/26 05:43:24;;;;;;;33.83;10.13;;;;;;;9.10;83.40;101201.03;1631054;85;21625;-78
2022/10/26 05:46:09;;;;;;;28.77;8.83;;;;;;;9.13;83.42;101204.04;1634619;85;21518;-78
2022/10/26 05:48:54;;;;;;;31.68;9.23;;;;;;;9.09;83.32;101200.60;1629394;86;21110;-78
2022/10/26 05:51:40;;;;;;;32.93;8.03;;;;;;;9.09;83.42;101205.77;1641249;85;21097;-78
2022/10/26 05:54:25;;;;;;;33.23;9.05;;;;;;;9.09;83.34;101200.60;1623635;86;21109;-78
2022/10/26 05:57:13;;;;;;;24.87;9.65;;;;;;;9.02;83.34;101205.77;1624224;86;21503;-78
2022/10/26 05:59:58;;;;;;;23.07;9.20;;;;;;;9.04;83.49;101210.49;1633593;86;20927;-78
2022/10/26 06:03:14;;;;;;;17.42;7.55;;;;;;;9.04;83.46;101210.06;1636435;87;20966;-78
2022/10/26 06:06:00;;;;;;;18.77;7.87;;;;;;;9.06;83.48;101207.05;1629615;85;21075;-78
2022/10/26 06:08:46;;;;;;;14.30;7.22;;;;;;;9.08;83.53;101216.94;1626592;87;21149;-78
2022/10/26 06:11:32;;;;;;;15.48;7.40;;;;;;;9.11;83.53;101216.08;1634305;86;21155;-78
2022/10/26 06:14:17;;;;;;;18.42;7.92;;;;;;;9.12;83.51;101216.52;1633067;86;21420;-78
2022/10/26 06:17:26;;;;;;;25.35;7.60;;;;;;;9.11;83.49;101223.39;1621187;86;20955;-78
2022/10/26 06:20:31;;;;;;;13.72;7.47;;;;;;;9.14;83.57;101218.66;1636152;87;20966;-79
2022/10/26 06:23:51;;;;;;;22.85;6.75;;;;;;;9.18;83.59;101216.08;1596843;87;21011;-79
2022/10/26 06:26:47;;;;;;;19.52;7.17;;;;;;;9.24;83.63;101226.39;1629249;86;20975;-78
2022/10/26 06:29:56;;;;;;;;;;;;;;;9.27;83.64;101231.55;1635981;86;20951;-78
2022/10/26 06:32:45;;;;;;;24.32;5.90;;;;;;;9.35;83.80;101233.27;1626666;86;20137;-78
2022/10/26 06:35:44;;;;;;;9.15;5.65;;;;;;;9.39;83.66;101240.98;1638795;85;20985;-78
2022/10/26 06:38:33;;;;;;;20.60;6.20;;;;;;;9.42;83.61;101241.41;1630490;86;20923;-78
2022/10/26 06:41:21;;;;;;;18.35;7.70;;;;;;;9.47;83.69;101247.42;1641388;86;21412;-78
2022/10/26 06:44:08;;;;;;;8.68;6.65;;;;;;;9.53;83.72;101255.16;1629863;86;21454;-78
2022/10/26 06:47:16;;;;;;;25.77;8.10;;;;;;;9.59;83.78;101258.59;1630071;85;20903;-78
2022/10/26 06:50:24;;;;;;;17.35;8.20;;;;;;;9.62;83.70;101256.01;1632998;86;21771;-78
2022/10/26 06:53:34;;;;;;;18.57;9.10;;;;;;;9.67;83.69;101256.00;1539701;87;5001124;-78
2022/10/26 06:56:20;;;;;;;37.80;8.33;;;;;;;9.71;83.73;101260.73;1638228;83;20922;-78
2022/10/26 06:59:10;;;;;;;9.85;8.95;;;;;;;9.73;83.73;101259.86;1639027;85;20918;-78
2022/10/26 07:01:55;;;;;;;11.57;9.48;;;;;;;9.77;83.75;101266.73;1642043;84;20969;-78
2022/10/26 07:04:41;;;;;;;10.45;9.45;;;;;;;9.84;83.81;101263.71;1635046;86;20966;-78
2022/10/26 07:07:29;;;;;;;24.90;9.63;;;;;;;9.88;83.81;101266.25;1640990;85;20919;-78
2022/10/26 07:10:14;;;;;;;18.67;10.08;;;;;;;9.93;83.79;101267.53;1638068;86;20978;-78
2022/10/26 07:12:59;;;;;;;21.20;10.23;;;;;;;9.96;83.81;101269.67;1625828;86;20930;-78
2022/10/26 07:15:44;;;;;;;17.40;10.20;;;;;;;10.01;83.84;101265.78;1637609;85;20950;-78
2022/10/26 07:18:28;;;;;;;21.68;8.88;;;;;;;10.08;83.89;101266.19;1637241;85;20930;-78
2022/10/26 07:21:13;;;;;;;17.40;9.65;;;;;;;10.14;83.91;101270.48;1644549;86;20958;-78
2022/10/26 07:23:58;;;;;;;20.02;9.38;;;;;;;10.21;83.93;101274.80;1644596;86;20936;-78
2022/10/26 07:26:43;;;;;;;15.48;9.78;;;;;;;10.28;83.92;101282.95;1646727;85;20931;-78
2022/10/26 07:29:28;;;;;;;15.72;9.58;;;;;;;10.32;83.92;101282.51;1634872;85;20980;-78
2022/10/26 07:32:13;;;;;;;17.55;10.40;;;;;;;10.36;83.92;101286.80;1640060;86;20970;-78
2022/10/26 07:34:58;;;;;;;11.15;9.90;;;;;;;10.40;83.97;101282.87;1627467;85;642198;-78
2022/10/26 07:37:43;;;;;;;23.02;10.43;;;;;;;10.44;84.00;101274.66;1634891;86;21022;-78
2022/10/26 07:40:28;;;;;;;13.08;9.93;;;;;;;10.49;83.98;101280.24;1643708;86;20925;-78
2022/10/26 07:43:13;;;;;;;25.32;11.18;;;;;;;10.52;83.96;101285.40;1643240;86;21388;-78
2022/10/26 07:45:58;;;;;;;16.10;10.75;;;;;;;10.57;84.00;101284.08;1637922;85;20910;-78
2022/10/26 07:48:43;;;;;;;21.35;11.08;;;;;;;10.64;84.05;101288.36;1643504;86;20968;-78
2022/10/26 07:51:28;;;;;;;17.30;11.43;;;;;;;10.74;84.06;101285.28;1634735;86;20929;-78
2022/10/26 07:54:13;;;;;;;20.15;12.98;;;;;;;10.81;84.08;101286.97;1634657;86;21560;-78
2022/10/26 07:56:58;;;;;;;19.48;12.03;;;;;;;10.88;84.12;101291.23;1630477;85;21573;-78
2022/10/26 07:59:43;;;;;;;38.28;13.62;;;;;;;10.96;84.13;101293.31;1634774;86;20914;-79
2022/10/26 08:02:28;;;;;;;19.75;14.35;;;;;;;11.03;84.16;101298.01;1630425;85;20978;-79
2022/10/26 08:05:13;;;;;;;18.23;13.75;;;;;;;11.08;84.10;101299.70;1630402;87;20914;-79
2022/10/26 08:08:01;;;;;;;23.35;14.35;;;;;;;11.15;84.19;101302.66;1605878;87;20972;-79
2022/10/26 08:10:46;;;;;;;23.73;16.42;;;;;;;11.24;84.17;101309.07;1632630;86;20974;-79
2022/10/26 08:13:31;;;;;;;19.52;15.93;;;;;;;11.32;84.11;101311.60;1631396;85;20951;-79
2022/10/26 08:16:16;;;;;;;30.60;16.95;;;;;;;11.34;84.12;101311.59;1629990;87;20930;-79
2022/10/26 08:19:01;;;;;;;32.30;18.60;;;;;;;11.40;84.19;101315.42;1627027;85;20919;-79
2022/10/26 08:21:46;;;;;;;28.02;18.15;;;;;;;11.44;84.22;101314.50;1612040;86;21493;-79
2022/10/26 08:24:31;;;;;;;33.15;19.90;;;;;;;11.49;84.21;101316.61;1628758;86;20930;-79
2022/10/26 08:27:16;;;;;;;34.27;20.37;;;;;;;11.54;84.20;101311.82;1525021;86;10000275;-79
2022/10/26 08:30:01;;;;;;;31.60;19.95;;;;;;;11.59;84.18;101311.34;1617151;85;20952;-79
2022/10/26 08:32:46;;;;;;;34.18;20.85;;;;;;;11.63;84.21;101312.17;1644543;85;21447;-79
2022/10/26 08:35:32;;;;;;;35.30;19.85;;;;;;;11.66;84.16;101305.67;1642629;85;21790;-79
2022/10/26 08:38:16;;;;;;;35.20;20.20;;;;;;;11.70;84.20;101314.27;1643698;85;20933;-79
2022/10/26 08:41:10;;;;;;;40.03;22.10;;;;;;;11.73;84.22;101310.36;1634169;85;21062;-79
2022/10/26 08:44:00;;;;;;;37.23;22.52;;;;;;;11.76;84.17;101317.66;1636468;85;21574;-79
2022/10/26 08:46:49;;;;;;;35.28;21.50;;;;;;;11.76;84.23;101316.38;1633871;85;21447;-79
2022/10/26 08:50:00;;;;;;;39.18;22.10;;;;;;;11.81;84.25;101319.81;1624336;86;20975;-79
2022/10/26 08:53:03;;;;;;;44.60;22.90;;;;;;;11.86;84.21;101314.58;1633312;86;20963;-79
2022/10/26 08:55:53;;;;;;;45.12;23.07;;;;;;;11.89;84.19;101307.63;1633562;84;21340;-79
2022/10/26 08:58:44;;;;;;;53.68;22.87;;;;;;;11.88;84.10;101316.28;1632033;85;20954;-79
2022/10/26 09:01:33;;;;;;;48.10;23.50;;;;;;;11.83;84.15;101319.80;1631220;86;20930;-79
2022/10/26 09:04:26;;;;;;;41.53;24.02;;;;;;;11.89;84.24;101316.70;1637944;85;20926;-79
2022/10/26 09:07:41;;;;;;;50.52;22.75;;;;;;;11.93;84.24;101320.98;1638861;85;21479;-79
2022/10/26 09:10:49;;;;;;;40.58;23.92;;;;;;;11.99;84.27;101320.03;1637314;86;26890;-79
2022/10/26 09:13:55;;;;;;;40.28;24.55;;;;;;;12.01;84.26;101316.98;1632412;86;20966;-79
2022/10/26 09:16:44;;;;;;;46.65;24.20;;;;;;;12.04;84.29;101311.77;1641076;85;21383;-79
2022/10/26 09:19:43;;;;;;;43.55;25.50;;;;;;;12.09;84.33;101319.50;1643033;85;20916;-79
2022/10/26 09:22:51;;;;;;;39.18;24.30;;;;;;;12.15;84.38;101318.13;1638482;85;20947;-78
2022/10/26 09:25:40;;;;;;;42.62;25.15;;;;;;;12.23;84.34;101317.61;1638995;85;21044;-78
2022/10/26 09:28:32;;;;;;;40.83;25.15;;;;;;;12.29;84.36;101327.05;1635856;86;21589;-78
2022/10/26 09:31:17;;;;;;;41.35;26.40;;;;;;;12.34;84.34;101328.72;1637807;85;20961;-78
2022/10/26 09:34:04;;;;;;;50.95;27.15;;;;;;;12.36;84.29;101328.70;1618490;86;20930;-78
2022/10/26 09:36:54;;;;;;;41.05;26.40;;;;;;;12.40;84.31;101331.24;1625996;86;20922;-78
2022/10/26 09:39:44;;;;;;;43.15;26.50;;;;;;;12.43;84.36;101329.91;1635047;85;21431;-78
2022/10/26 09:43:05;;;;;;;46.77;27.80;;;;;;;12.52;84.36;101321.13;1643119;85;20978;-78
2022/10/26 09:45:52;;;;;;;51.15;30.20;;;;;;;12.55;84.35;101317.19;1645589;86;20982;-78
2022/10/26 09:48:41;;;;;;;59.95;30.70;;;;;;;12.63;84.36;101327.47;1652090;83;21025;-78
2022/10/26 09:51:26;;;;;;;55.67;32.67;;;;;;;12.66;84.23;101330.03;1634558;85;21049;-78
2022/10/26 09:54:17;;;;;;;49.08;29.82;;;;;;;12.66;84.27;101337.81;1636411;85;21154;-78
2022/10/26 09:57:06;;;;;;;43.92;28.27;;;;;;;12.72;84.36;101330.81;1631598;86;21640;-78
2022/10/26 09:59:54;;;;;;;37.50;25.30;;;;;;;12.76;84.29;101342.01;1644877;86;21136;-78
2022/10/26 10:02:44;;;;;;;36.42;23.87;;;;;;;12.76;84.34;101345.90;1637853;86;21411;-78
2022/10/26 10:05:32;;;;;;;40.00;26.60;;;;;;;12.81;84.32;101347.55;1647231;85;20966;-78
2022/10/26 10:08:25;;;;;;;40.70;26.50;;;;;;;12.85;84.33;101357.02;1643200;85;20983;-79
2022/10/26 10:11:13;;;;;;;39.18;26.23;;;;;;;12.87;84.29;101352.66;1643956;85;20966;-79
2022/10/26 10:14:04;;;;;;;38.38;24.98;;;;;;;12.80;84.24;101353.62;1652136;85;20954;-79
2022/10/26 10:17:04;;;;;;;40.15;26.35;;;;;;;12.84;84.34;101358.34;1640695;85;20975;-79
2022/10/26 10:19:49;;;;;;;43.48;27.37;;;;;;;12.85;84.33;101354.86;1642827;86;20984;-79
2022/10/26 10:22:34;;;;;;;37.28;26.42;;;;;;;12.90;84.40;101358.25;1629189;86;20986;-79
2022/10/26 10:25:33;;;;;;;40.17;27.07;;;;;;;12.93;84.39;101355.18;1645677;86;20953;-78
2022/10/26 10:28:24;;;;;;;33.05;25.02;;;;;;;13.02;84.40;101347.67;1645215;86;20977;-78
2022/10/26 10:31:28;;;;;;;35.80;24.52;;;;;;;13.05;84.29;101354.12;1649734;85;21359;-78
2022/10/26 10:34:16;;;;;;;38.65;25.72;;;;;;;13.05;84.23;101355.42;1649905;84;20960;-78
2022/10/26 10:37:01;;;;;;;39.78;28.30;;;;;;;13.00;84.23;101357.69;1642244;85;20926;-78
2022/10/26 10:39:47;;;;;;;40.40;27.82;;;;;;;13.04;84.36;101356.73;1645689;86;20993;-78
2022/10/26 10:42:36;;;;;;;39.05;27.10;;;;;;;13.10;84.44;101355.34;1647114;85;20922;-78
2022/10/26 10:45:25;;;;;;;42.25;27.75;;;;;;;13.20;84.41;101354.37;1645598;84;21462;-78
2022/10/26 10:48:17;;;;;;;40.90;27.62;;;;;;;13.30;84.40;101356.39;1645382;85;20958;-78
2022/10/26 10:51:11;;;;;;;41.63;27.98;;;;;;;13.33;84.28;101355.05;1620055;87;21339;-78
2022/10/26 10:53:55;;;;;;;42.48;30.20;;;;;;;13.39;84.33;101354.95;1659885;85;20943;-78
2022/10/26 10:56:51;;;;;;;40.98;29.72;;;;;;;13.49;84.41;101350.88;1666066;84;21466;-78
2022/10/26 10:59:55;;;;;;;39.65;28.67;;;;;;;13.62;84.37;101355.41;1652486;84;21439;-78
2022/10/26 11:02:51;;;;;;;44.42;30.12;;;;;;;13.66;84.27;101349.28;1631620;86;21236;-78
2022/10/26 11:05:50;;;;;;;42.48;29.80;;;;;;;13.65;84.21;101348.00;1638955;86;21561;-78
2022/10/26 11:08:52;;;;;;;47.35;30.55;;;;;;;13.62;84.20;101345.02;1639163;86;20926;-78
2022/10/26 11:12:03;;;;;;;43.25;31.02;;;;;;;13.66;84.27;101342.78;1630301;86;20936;-78
2022/10/26 11:14:55;;;;;;;45.33;32.58;;;;;;;13.71;84.26;101344.00;1595002;89;21074;-78
2022/10/26 11:18:09;;;;;;;46.13;31.23;;;;;;;13.77;84.15;101351.25;1598934;87;21346;-78
2022/10/26 11:20:59;;;;;;;41.50;30.35;;;;;;;13.76;84.15;101349.98;1599754;89;20962;-78
2022/10/26 11:23:49;;;;;;;44.60;30.57;;;;;;;13.75;84.17;101350.86;1588252;89;21598;-78
2022/10/26 11:26:39;;;;;;;35.55;27.82;;;;;;;13.78;84.21;101350.81;1591511;87;21551;-78
2022/10/26 11:29:38;;;;;;;41.15;28.52;;;;;;;13.80;84.24;101349.05;1599719;88;21049;-78
2022/10/26 11:32:37;;;;;;;37.48;25.62;;;;;;;13.80;84.15;101356.40;1583618;89;20975;-78
2022/10/26 11:35:48;;;;;;;31.45;24.43;;;;;;;13.86;84.21;101354.99;1597371;88;20969;-78
2022/10/26 11:38:41;;;;;;;34.45;25.05;;;;;;;13.87;84.12;101355.41;1607833;86;21005;-78
2022/10/26 11:41:49;;;;;;;32.55;23.95;;;;;;;13.82;84.07;101355.08;1631255;86;20940;-78
2022/10/26 11:44:54;;;;;;;34.75;24.50;;;;;;;13.75;84.07;101353.46;1633606;84;20971;-78
2022/10/26 11:47:47;;;;;;;33.83;24.87;;;;;;;13.74;84.15;101356.95;1638475;86;21270;-78
2022/10/26 11:50:39;;;;;;;30.77;23.12;;;;;;;13.72;84.20;101349.17;1635377;86;21328;-78
2022/10/26 11:53:30;;;;;;;34.50;22.85;;;;;;;13.73;84.17;101353.48;1618233;86;36872;-78
2022/10/26 11:56:32;;;;;;;33.48;22.05;;;;;;;13.73;84.21;101353.93;1635987;86;21117;-78
2022/10/26 11:59:27;;;;;;;24.10;19.23;;;;;;;13.73;84.12;101354.79;1631305;86;21098;-78
2022/10/26 12:02:21;;;;;;;28.38;20.40;;;;;;;13.68;84.03;101356.61;1636960;86;20919;-78
2022/10/26 12:05:18;;;;;;;34.53;24.10;;;;;;;13.65;84.09;101354.50;1638133;86;20942;-78
2022/10/26 12:08:13;;;;;;;37.55;24.57;;;;;;;13.67;84.16;101358.79;1632512;86;21458;-78
2022/10/26 12:11:03;;;;;;;37.35;26.65;;;;;;;13.66;84.08;101357.52;1640724;85;20934;-78
2022/10/26 12:14:00;;;;;;;35.13;26.70;;;;;;;13.60;84.03;101359.77;1633294;85;20958;-78
2022/10/26 12:16:57;;;;;;;;;;;;;;;13.57;84.07;101366.31;1637657;85;20958;-78
2022/10/26 12:19:47;;;;;;;30.12;23.05;;;;;;;13.59;84.08;101356.31;1630380;86;20112;-78
2022/10/26 12:22:39;;;;;;;30.68;23.62;;;;;;;13.61;84.08;101356.29;1636184;86;20907;-78
2022/10/26 12:25:23;;;;;;;30.45;23.67;;;;;;;13.63;84.07;101352.37;1638471;85;21040;-78
2022/10/26 12:28:37;;;;;;;31.37;23.90;;;;;;;13.63;84.08;101348.03;1639073;85;21093;-78
2022/10/26 12:31:39;;;;;;;35.50;24.30;;;;;;;13.65;84.06;101350.60;1636144;86;21069;-78
2022/10/26 12:34:41;;;;;;;30.48;24.18;;;;;;;13.67;84.07;101351.44;1625143;86;21736;-78
2022/10/26 12:37:36;;;;;;;27.82;20.92;;;;;;;13.69;84.03;101354.86;1632500;86;21088;-78
2022/10/26 12:40:35;;;;;;;36.60;20.85;;;;;;;13.70;84.02;101355.28;1638503;86;21128;-78
2022/10/26 12:43:32;;;;;;;28.47;21.42;;;;;;;13.71;84.00;101349.20;1637360;86;21084;-78
2022/10/26 12:46:23;;;;;;;;;;;;;;;13.70;84.06;101341.84;1636382;86;21084;-78
2022/10/26 12:49:13;;;;;;;27.42;19.77;;;;;;;13.73;84.04;101342.23;1635955;86;20239;-78
2022/10/26 12:51:59;;;;;;;30.23;20.55;;;;;;;13.74;84.04;101343.51;1640528;85;21054;-78
2022/10/26 12:54:58;;;;;;;25.90;21.12;;;;;;;13.76;84.05;101339.58;1643651;85;21539;-78
2022/10/26 12:58:05;;;;;;;25.43;21.73;;;;;;;13.79;84.04;101331.73;1627108;86;21081;-78
2022/10/26 13:01:05;;;;;;;25.32;21.35;;;;;;;13.81;84.02;101335.16;1638523;85;22186;-77
2022/10/26 13:04:13;;;;;;;29.70;20.72;;;;;;;13.84;84.02;101337.27;1647713;86;20958;-77
2022/10/26 13:07:20;;;;;;;27.37;21.15;;;;;;;13.87;84.01;101331.16;1634000;85;20956;-77
2022/10/26 13:10:21;;;;;;;25.55;19.98;;;;;;;13.88;84.10;101333.72;1638270;86;20938;-77